Map

Track Data

SID SEASON NUMBER BASIN SUBBASIN NAME ISO_TIME NATURE LAT LON WMO_WIND WMO_PRES WMO_AGENCY TRACK_TYPE DIST2LAND LANDFALL IFLAG USA_AGENCY USA_ATCF_ID USA_LAT USA_LON USA_RECORD USA_STATUS USA_WIND USA_PRES USA_SSHS USA_R34_NE USA_R34_SE USA_R34_SW USA_R34_NW USA_R50_NE USA_R50_SE USA_R50_SW USA_R50_NW USA_R64_NE USA_R64_SE USA_R64_SW USA_R64_NW USA_POCI USA_ROCI USA_RMW USA_EYE TOKYO_LAT TOKYO_LON TOKYO_GRADE TOKYO_WIND TOKYO_PRES TOKYO_R50_DIR TOKYO_R50_LONG TOKYO_R50_SHORT TOKYO_R30_DIR TOKYO_R30_LONG TOKYO_R30_SHORT TOKYO_LAND CMA_LAT CMA_LON CMA_CAT CMA_WIND CMA_PRES HKO_LAT HKO_LON HKO_CAT HKO_WIND HKO_PRES NEWDELHI_LAT NEWDELHI_LON NEWDELHI_GRADE NEWDELHI_WIND NEWDELHI_PRES NEWDELHI_CI NEWDELHI_DP NEWDELHI_POCI REUNION_LAT REUNION_LON REUNION_TYPE REUNION_WIND REUNION_PRES REUNION_TNUM REUNION_CI REUNION_RMW REUNION_R34_NE REUNION_R34_SE REUNION_R34_SW REUNION_R34_NW REUNION_R50_NE REUNION_R50_SE REUNION_R50_SW REUNION_R50_NW REUNION_R64_NE REUNION_R64_SE REUNION_R64_SW REUNION_R64_NW BOM_LAT BOM_LON BOM_TYPE BOM_WIND BOM_PRES BOM_TNUM BOM_CI BOM_RMW BOM_R34_NE BOM_R34_SE BOM_R34_SW BOM_R34_NW BOM_R50_NE BOM_R50_SE BOM_R50_SW BOM_R50_NW BOM_R64_NE BOM_R64_SE BOM_R64_SW BOM_R64_NW BOM_ROCI BOM_POCI BOM_EYE BOM_POS_METHOD BOM_PRES_METHOD NADI_LAT NADI_LON NADI_CAT NADI_WIND NADI_PRES WELLINGTON_LAT WELLINGTON_LON WELLINGTON_WIND WELLINGTON_PRES DS824_LAT DS824_LON DS824_STAGE DS824_WIND DS824_PRES TD9636_LAT TD9636_LON TD9636_STAGE TD9636_WIND TD9636_PRES TD9635_LAT TD9635_LON TD9635_WIND TD9635_PRES TD9635_ROCI NEUMANN_LAT NEUMANN_LON NEUMANN_CLASS NEUMANN_WIND NEUMANN_PRES MLC_LAT MLC_LON MLC_CLASS MLC_WIND MLC_PRES USA_GUST BOM_GUST BOM_GUST_PER REUNION_GUST REUNION_GUST_PER USA_SEAHGT USA_SEARAD_NE USA_SEARAD_SE USA_SEARAD_SW USA_SEARAD_NW STORM_SPEED STORM_DIR
1976273N10270 1976 121 EP MM MADELINE 1976-09-29 00:00:00 TS 10.0000 -90.5000 35 hurdat_epa main 399 399 O________OO___ hurdat_epa EP131976 10.0000 -90.5000 TS 35 0 10.0000 -90.5000 TC 35 10.0000 -90.5000 2 35 2 267
1976273N10270 1976 121 EP MM MADELINE 1976-09-29 03:00:00 TS 9.99419 -90.5982 main 401 401 P________PP___ EP131976 10.0025 -90.5700 TS 35 0 10.0025 -90.5700 TC 35 9.96110 -90.7110 2 33 2 267
1976273N10270 1976 121 EP MM MADELINE 1976-09-29 06:00:00 TS 9.98754 -90.7395 35 hurdat_epa main 404 404 O________OP___ hurdat_epa EP131976 10.0000 -90.7000 TS 35 0 10.0000 -90.7000 TC 35 9.93768 -90.8975 2 32 3 268
1976273N10270 1976 121 EP MM MADELINE 1976-09-29 09:00:00 TS 9.98312 -90.9391 main 409 409 P________PP___ EP131976 9.99255 -90.9150 TS 32 -1 9.99255 -90.9150 TC 32 9.94542 -91.0353 2 31 4 272
1976273N10270 1976 121 EP MM MADELINE 1976-09-29 12:00:00 TS 10.0000 -91.1000 30 hurdat_epa main 416 406 O________OO___ hurdat_epa EP131976 10.0000 -91.1000 TD 30 -1 10.0000 -91.1000 TC 30 10.0000 -91.1000 1 30 2 292
1976273N10270 1976 121 EP MM MADELINE 1976-09-29 15:00:00 TS 10.0558 -91.1261 main 406 406 P________PP___ EP131976 10.0425 -91.1375 TD 30 -1 10.0425 -91.1375 TC 30 10.1093 -91.0807 1 30 1 8
1976273N10270 1976 121 EP MM MADELINE 1976-09-29 18:00:00 TS 10.1300 -91.0840 30 hurdat_epa main 406 391 O________OP___ hurdat_epa EP131976 10.1000 -91.1000 TD 30 -1 10.1000 -91.1000 TC 30 10.2499 -91.0201 1 30 2 37
1976273N10270 1976 121 EP MM MADELINE 1976-09-29 21:00:00 TS 10.2041 -91.0109 main 391 381 P________PP___ EP131976 10.1575 -91.0200 TD 27 -1 10.1575 -91.0200 TC 27 10.3905 -90.9745 1 30 2 32
1976273N10270 1976 121 EP MM MADELINE 1976-09-30 00:00:00 TS 10.2600 -91.0000 25 hurdat_epa main 381 381 O________OO___ hurdat_epa EP131976 10.2000 -91.0000 TD 25 -1 10.2000 -91.0000 TC 25 10.5000 -91.0000 1 30 2 295
1976273N10270 1976 121 EP MM MADELINE 1976-09-30 03:00:00 TS 10.2724 -91.1623 main 389 389 P________PP___ EP131976 10.2075 -91.1550 TD 27 -1 10.2075 -91.1550 TC 27 10.5321 -91.1913 1 28 4 271
1976273N10270 1976 121 EP MM MADELINE 1976-09-30 06:00:00 TS 10.2661 -91.4110 30 hurdat_epa main 398 398 O________OP___ hurdat_epa EP131976 10.2000 -91.4000 TD 30 -1 10.2000 -91.4000 TC 30 10.5303 -91.4551 1 27 5 269
1976273N10270 1976 121 EP MM MADELINE 1976-09-30 09:00:00 TS 10.2627 -91.6683 main 405 405 P________PP___ EP131976 10.2000 -91.6500 TD 27 -1 10.2000 -91.6500 TC 27 10.5133 -91.7413 1 26 5 269
1976273N10270 1976 121 EP MM MADELINE 1976-09-30 12:00:00 TS 10.2600 -91.9200 25 hurdat_epa main 408 408 O________OO___ hurdat_epa EP131976 10.2000 -91.9000 TD 25 -1 10.2000 -91.9000 TC 25 10.5000 -92.0000 1 25 4 270
1976273N10270 1976 121 EP MM MADELINE 1976-09-30 15:00:00 TS 10.2611 -92.1182 main 412 412 P________PP___ EP131976 10.2000 -92.1075 TD 25 -1 10.2000 -92.1075 TC 25 10.5055 -92.1610 1 4 271
1976273N10270 1976 121 EP MM MADELINE 1976-09-30 18:00:00 TS 10.2640 -92.2975 25 hurdat_epa main 417 417 O________OP___ hurdat_epa EP131976 10.2000 -92.3000 TD 25 -1 10.2000 -92.3000 TC 25 10.5199 -92.2875 1 4 270
1976273N10270 1976 121 EP MM MADELINE 1976-09-30 21:00:00 TS 10.2638 -92.4791 main 423 423 P________PP___ EP131976 10.1925 -92.5000 TD 25 -1 10.1925 -92.5000 TC 25 10.5493 -92.3954 1 4 273
1976273N10270 1976 121 EP MM MADELINE 1976-10-01 00:00:00 TS 10.2800 -92.6600 25 hurdat_epa main 430 430 O________OO___ hurdat_epa EP131976 10.2000 -92.7000 TD 25 -1 10.2000 -92.7000 TC 25 10.6000 -92.5000 1 4 282
1976273N10270 1976 121 EP MM MADELINE 1976-10-01 03:00:00 TS 10.3373 -92.8409 main 434 428 P________PP___ EP131976 10.2500 -92.9000 TD 25 -1 10.2500 -92.9000 TC 25 10.6865 -92.6047 1 4 288
1976273N10270 1976 121 EP MM MADELINE 1976-10-01 06:00:00 TS 10.3985 -93.0225 25 hurdat_epa main 433 433 O________OP___ hurdat_epa EP131976 10.3000 -93.1000 TD 25 -1 10.3000 -93.1000 TC 25 10.7924 -92.7125 1 4 283
1976273N10270 1976 121 EP MM MADELINE 1976-10-01 09:00:00 TS 10.4264 -93.2198 main 443 443 P________PP___ EP131976 10.3075 -93.3150 TD 25 -1 10.3075 -93.3150 TC 25 10.9021 -92.8391 1 4 276
1976273N10270 1976 121 EP MM MADELINE 1976-10-01 12:00:00 TS 10.4400 -93.4000 25 hurdat_epa main 453 449 O________OO___ hurdat_epa EP131976 10.3000 -93.5000 TD 25 -1 10.3000 -93.5000 TC 25 11.0000 -93.0000 1 3 275
1976273N10270 1976 121 EP MM MADELINE 1976-10-01 15:00:00 TS 10.4521 -93.5209 main 449 449 P________PP___ EP131976 10.2999 -93.5925 TD 25 -1 10.2999 -93.5925 TC 25 11.0605 -93.2344 1 3 275
1976273N10270 1976 121 EP MM MADELINE 1976-10-01 18:00:00 TS 10.4615 -93.6600 25 hurdat_epa main 461 461 O________OP___ hurdat_epa EP131976 10.3000 -93.7000 TD 25 -1 10.3000 -93.7000 TC 25 11.1077 -93.5000 1 4 273
1976273N10270 1976 121 EP MM MADELINE 1976-10-01 21:00:00 TS 10.4702 -93.9011 main 473 473 P________PP___ EP131976 10.3000 -93.9350 TD 25 -1 10.3000 -93.9350 TC 25 11.1511 -93.7657 1 5 272
1976273N10270 1976 121 EP MM MADELINE 1976-10-02 00:00:00 TS 10.4800 -94.1600 25 hurdat_epa main 489 489 O________OO___ hurdat_epa EP131976 10.3000 -94.2000 TD 25 -1 10.3000 -94.2000 TC 25 11.2000 -94.0000 1 5 272
1976273N10270 1976 121 EP MM MADELINE 1976-10-02 03:00:00 TS 10.4875 -94.3582 main 501 501 P________PP___ EP131976 10.2925 -94.4075 TD 25 -1 10.2925 -94.4075 TC 25 11.2677 -94.1610 1 4 274
1976273N10270 1976 121 EP MM MADELINE 1976-10-02 06:00:00 TS 10.5085 -94.5375 25 hurdat_epa main 507 507 O________OP___ hurdat_epa EP131976 10.3000 -94.6000 TD 25 -1 10.3000 -94.6000 TC 25 11.3424 -94.2876 1 4 281
1976273N10270 1976 121 EP MM MADELINE 1976-10-02 09:00:00 TS 10.5581 -94.7131 main 511 511 P________PP___ EP131976 10.3425 -94.7925 TD 25 -1 10.3425 -94.7925 TC 25 11.4208 -94.3953 1 4 287
1976273N10270 1976 121 EP MM MADELINE 1976-10-02 12:00:00 TS 10.6200 -94.9000 25 hurdat_epa main 525 522 O________OO___ hurdat_epa EP131976 10.4000 -95.0000 TD 25 -1 10.4000 -95.0000 TC 25 11.5000 -94.5000 1 4 287
1976273N10270 1976 121 EP MM MADELINE 1976-10-02 15:00:00 TS 10.6762 -95.1068 main 529 529 P________PP___ EP131976 10.4425 -95.2425 TD 25 -1 10.4425 -95.2425 TC 25 11.6112 -94.5639 1 4 286
1976273N10270 1976 121 EP MM MADELINE 1976-10-02 18:00:00 TS 10.7434 -95.3274 25 hurdat_epa main 542 540 O________OP___ hurdat_epa EP131976 10.5000 -95.5000 TD 25 -1 10.5000 -95.5000 TC 25 11.7169 -94.6372 1 5 290
1976273N10270 1976 121 EP MM MADELINE 1976-10-02 21:00:00 TS 10.8318 -95.5534 main 548 533 P________PP___ EP131976 10.5925 -95.7500 TD 25 -1 10.5925 -95.7500 TC 25 11.7891 -94.7669 1 5 291
1976273N10270 1976 121 EP MM MADELINE 1976-10-03 00:00:00 TS 10.9200 -95.8000 25 hurdat_epa main 533 517 O________OO___ hurdat_epa EP131976 10.7000 -96.0000 TD 25 -1 10.7000 -96.0000 TC 25 11.8000 -95.0000 1 30 6 286
1976273N10270 1976 121 EP MM MADELINE 1976-10-03 03:00:00 TS 10.9875 -96.1128 main 517 515 P________PP___ EP131976 10.8075 -96.2725 TD 27 -1 10.8075 -96.2725 TC 27 11.7077 -95.4741 1 30 6 281
1976273N10270 1976 121 EP MM MADELINE 1976-10-03 06:00:00 TS 11.0308 -96.4077 30 hurdat_epa main 515 515 O________OP___ hurdat_epa EP131976 10.9000 -96.5000 TD 30 -1 10.9000 -96.5000 TC 30 11.5540 -96.0385 1 30 5 277
1976273N10270 1976 121 EP MM MADELINE 1976-10-03 09:00:00 TS 11.0466 -96.6087 main 515 515 P________PP___ EP131976 10.9650 -96.6150 TD 30 -1 10.9650 -96.6150 TC 30 11.3732 -96.5836 1 30 3 272
1976273N10270 1976 121 EP MM MADELINE 1976-10-03 12:00:00 TS 11.0400 -96.7600 30 hurdat_epa main 515 515 O________OO___ hurdat_epa EP131976 11.0000 -96.7000 TD 30 -1 11.0000 -96.7000 TC 30 11.2000 -97.0000 1 30 3 263
1976273N10270 1976 121 EP MM MADELINE 1976-10-03 15:00:00 TS 11.0102 -96.8946 main 516 516 P________PP___ EP131976 10.9925 -96.8425 TD 30 -1 10.9925 -96.8425 TC 30 11.0810 -97.1027 1 30 3 260
1976273N10270 1976 121 EP MM MADELINE 1976-10-03 18:00:00 TS 10.9954 -97.0149 30 hurdat_epa main 516 506 O________OP___ hurdat_epa EP131976 11.0000 -97.0000 TD 30 -1 11.0000 -97.0000 TC 30 10.9769 -97.0744 1 30 2 281
1976273N10270 1976 121 EP MM MADELINE 1976-10-03 21:00:00 TS 11.0569 -97.1338 main 506 506 P________PP___ EP131976 11.1000 -97.1650 TD 32 -1 11.1000 -97.1650 TC 32 10.8843 -97.0090 1 30 3 299
1976273N10270 1976 121 EP MM MADELINE 1976-10-04 00:00:00 TS 11.1200 -97.2400 35 hurdat_epa main 508 508 O________OO___ hurdat_epa EP131976 11.2000 -97.3000 TS 35 0 11.2000 -97.3000 TC 35 10.8000 -97.0000 1 30 2 284
1976273N10270 1976 121 EP MM MADELINE 1976-10-04 03:00:00 TS 11.1072 -97.3399 main 509 509 P________PP___ EP131976 11.2075 -97.3650 TS 35 0 11.2075 -97.3650 TC 35 10.7059 -97.2392 1 30 2 259
1976273N10270 1976 121 EP MM MADELINE 1976-10-04 06:00:00 TS 11.0841 -97.4276 35 hurdat_epa main 511 511 O________OP___ hurdat_epa EP131976 11.2000 -97.4000 TS 35 0 11.2000 -97.4000 TC 35 10.6204 -97.5377 1 30 2 269
1976273N10270 1976 121 EP MM MADELINE 1976-10-04 09:00:00 TS 11.1039 -97.5235 main 513 513 P________PP___ EP131976 11.2425 -97.4500 TS 35 0 11.2425 -97.4500 TC 35 10.5496 -97.8173 1 30 2 288
1976273N10270 1976 121 EP MM MADELINE 1976-10-04 12:00:00 TS 11.1400 -97.6000 35 hurdat_epa main 515 504 O________OO___ hurdat_epa EP131976 11.3000 -97.5000 TS 35 0 11.3000 -97.5000 TC 35 10.5000 -98.0000 1 30 1 306
1976273N10270 1976 121 EP MM MADELINE 1976-10-04 15:00:00 TS 11.1817 -97.6325 main 504 504 P________PP___ EP131976 11.3575 -97.5500 TS 35 0 11.3575 -97.5500 TC 35 10.4784 -97.9624 1 31 1 329
1976273N10270 1976 121 EP MM MADELINE 1976-10-04 18:00:00 TS 11.2155 -97.6450 35 hurdat_epa main 504 504 O________OP___ hurdat_epa EP131976 11.4000 -97.6000 TS 35 0 11.4000 -97.6000 TC 35 10.4775 -97.8249 1 32 0 0
1976273N10270 1976 121 EP MM MADELINE 1976-10-04 21:00:00 TS 11.2236 -97.6500 main 506 506 P________PP___ EP131976 11.4075 -97.6500 TS 35 0 11.4075 -97.6500 TC 35 10.4879 -97.6500 1 33 0 0
1976273N10270 1976 121 EP MM MADELINE 1976-10-05 00:00:00 TS 11.2200 -97.6600 35 hurdat_epa main 506 506 O________OO___ hurdat_epa EP131976 11.4000 -97.7000 TS 35 0 11.4000 -97.7000 TC 35 10.5000 -97.5000 2 35 0 235
1976273N10270 1976 121 EP MM MADELINE 1976-10-05 03:00:00 TS 11.2010 -97.6855 main 506 506 P________PP___ EP131976 11.3925 -97.7500 TS 35 0 11.3925 -97.7500 TC 35 10.4349 -97.4277 2 35 1 245
1976273N10270 1976 121 EP MM MADELINE 1976-10-05 06:00:00 TS 11.1960 -97.7191 35 hurdat_epa main 506 506 O________OP___ hurdat_epa EP131976 11.4000 -97.8000 TS 35 0 11.4000 -97.8000 TC 35 10.3799 -97.3954 2 35 1 294
1976273N10270 1976 121 EP MM MADELINE 1976-10-05 09:00:00 TS 11.2370 -97.7631 main 509 498 P________PP___ EP131976 11.4500 -97.8500 TS 37 0 11.4500 -97.8500 TC 37 10.3849 -97.4154 2 35 1 317
1976273N10270 1976 121 EP MM MADELINE 1976-10-05 12:00:00 TS 11.3000 -97.8200 40 hurdat_epa main 498 498 O________OO___ hurdat_epa EP131976 11.5000 -97.9000 TS 40 0 11.5000 -97.9000 TC 40 10.5000 -97.5000 2 35 1 313
1976273N10270 1976 121 EP MM MADELINE 1976-10-05 15:00:00 TS 11.3387 -97.8689 main 501 490 P________PP___ EP131976 11.4700 -97.9201 TS 42 0 11.4700 -97.9201 TC 42 10.8135 -97.6639 2 40 2 313
1976273N10270 1976 121 EP MM MADELINE 1976-10-05 18:00:00 TS 11.4465 -97.9779 45 hurdat_epa main 494 465 O________OP___ hurdat_epa EP131976 11.5000 -98.0000 TS 45 0 11.5000 -98.0000 TC 45 11.2327 -97.8893 2 45 5 319
1976273N10270 1976 121 EP MM MADELINE 1976-10-05 21:00:00 TS 11.7191 -98.2049 main 469 447 P________PP___ EP131976 11.7275 -98.2199 TS 50 0 11.7275 -98.2199 TC 50 11.6855 -98.1451 2 50 8 319
1976273N10270 1976 121 EP MM MADELINE 1976-10-06 00:00:00 TS 12.0200 -98.4800 55 hurdat_epa main 452 436 O________OO___ hurdat_epa EP131976 12.0000 -98.5000 TS 55 0 12.0000 -98.5000 TC 55 12.1000 -98.4000 2 55 7 314
1976273N10270 1976 121 EP MM MADELINE 1976-10-06 03:00:00 TS 12.2010 -98.7135 main 436 420 P________PP___ EP131976 12.1575 -98.7501 TS 57 0 12.1575 -98.7501 TC 57 12.3749 -98.5672 2 56 6 307
1976273N10270 1976 121 EP MM MADELINE 1976-10-06 06:00:00 TS 12.3604 -98.9467 60 hurdat_epa main 420 416 O________OP___ hurdat_epa EP131976 12.3000 -99.0000 TS 60 0 12.3000 -99.0000 TC 60 12.6019 -98.7333 2 57 6 309
1976273N10270 1976 121 EP MM MADELINE 1976-10-06 09:00:00 TS 12.5605 -99.1746 main 409 397 P________PP___ EP131976 12.4999 -99.2350 TS 62 0 12.4999 -99.2350 TC 62 12.8029 -98.9328 2 58 6 310
1976273N10270 1976 121 EP MM MADELINE 1976-10-06 12:00:00 TS 12.7600 -99.4400 65 hurdat_epa main 397 397 O________OO___ hurdat_epa EP131976 12.7000 -99.5000 HU 65 1 12.7000 -99.5000 TC 65 13.0000 -99.2000 2 60 7 300
1976273N10270 1976 121 EP MM MADELINE 1976-10-06 15:00:00 TS 12.8995 -99.7843 main 401 392 P________PP___ EP131976 12.8200 -99.8277 HU 67 1 12.8200 -99.8277 TC 67 13.2175 -99.6104 2 62 8 294
1976273N10270 1976 121 EP MM MADELINE 1976-10-06 18:00:00 TS 13.0872 -100.177 70 984 hurdat_epa main 397 379 O________OP___ hurdat_epa EP131976 13.0000 -100.200 HU 70 984 1 13.0000 -100.200 TC 70 984 13.4359 -100.085 2 65 10 304
1976273N10270 1976 121 EP MM MADELINE 1976-10-06 21:00:00 TS 13.4343 -100.599 main 381 349 P________PP___ EP131976 13.3775 -100.607 HU 75 1 13.3775 -100.607 TC 75 13.6612 -100.567 2 67 11 312
1976273N10270 1976 121 EP MM MADELINE 1976-10-07 00:00:00 TS 13.8200 -101.000 80 hurdat_epa main 353 337 O________OO___ hurdat_epa EP131976 13.8000 -101.000 HU 80 1 13.8000 -101.000 TC 80 13.9000 -101.000 4 70 10 314
1976273N10270 1976 121 EP MM MADELINE 1976-10-07 03:00:00 TS 14.1232 -101.334 main 337 324 P________PP___ EP131976 14.1149 -101.330 HU 85 2 14.1149 -101.330 TC 85 14.1563 -101.348 4 73 8 315
1976273N10270 1976 121 EP MM MADELINE 1976-10-07 06:00:00 TS 14.4054 -101.607 90 hurdat_epa main 324 299 O________OP___ hurdat_epa EP131976 14.4000 -101.600 HU 90 2 14.4000 -101.600 TC 90 14.4272 -101.635 4 77 8 320
1976273N10270 1976 121 EP MM MADELINE 1976-10-07 09:00:00 TS 14.7019 -101.835 main 299 274 P________PP___ EP131976 14.7000 -101.830 HU 95 2 14.7000 -101.830 TC 95 14.7095 -101.854 4 81 7 327
1976273N10270 1976 121 EP MM MADELINE 1976-10-07 12:00:00 TS 15.0000 -102.000 100 hurdat_epa main 274 247 O________OO___ hurdat_epa EP131976 15.0000 -102.000 HU 100 3 15.0000 -102.000 TC 100 15.0000 -102.000 4 85 6 335
1976273N10270 1976 121 EP MM MADELINE 1976-10-07 15:00:00 TS 15.2860 -102.113 main 247 223 P________PP___ EP131976 15.2925 -102.123 HU 105 3 15.2925 -102.123 TC 105 15.2602 -102.072 4 92 6 344
1976273N10270 1976 121 EP MM MADELINE 1976-10-07 18:00:00 TS 15.5865 -102.175 110 hurdat_epa main 223 195 O________OP___ hurdat_epa EP131976 15.6000 -102.200 HU 110 3 15.6000 -102.200 TC 110 15.5324 -102.076 4 100 6 350
1976273N10270 1976 121 EP MM MADELINE 1976-10-07 21:00:00 TS 15.9037 -102.226 main 195 161 P________PP___ EP131976 15.9200 -102.272 HU 112 3 15.9200 -102.272 TC 112 15.8384 -102.041 4 107 7 356
1976273N10270 1976 121 EP MM MADELINE 1976-10-08 00:00:00 TS 16.2800 -102.240 115 941 hurdat_epa main 161 123 O________OO___ hurdat_epa EP131976 16.3000 -102.300 HU 115 941 4 16.3000 -102.300 TC 115 941 16.2000 -102.000 4 115 9 0
1976273N10270 1976 121 EP MM MADELINE 1976-10-08 03:00:00 TS 16.7544 -102.214 main 113 77 P________PP___ EP131976 16.7850 -102.273 HU 120 4 16.7850 -102.273 TC 120 16.6322 -101.978 4 10 4
1976273N10270 1976 121 EP MM MADELINE 1976-10-08 06:00:00 TS 17.2720 -102.164 125 hurdat_epa main 67 30 O________OP___ hurdat_epa EP131976 17.3000 -102.200 HU 125 4 17.3000 -102.200 TC 125 17.1226 -101.975 4 10 7
1976273N10270 1976 121 EP MM MADELINE 1976-10-08 09:00:00 TS 17.7524 -102.081 main 22 0 P________PP___ EP131976 17.7650 -102.093 HU 100 3 17.7650 -102.093 TC 100 17.6516 -101.984 4 9 10
1976273N10270 1976 121 EP MM MADELINE 1976-10-08 12:00:00 TS 18.2000 -102.000 75 hurdat_epa main 0 0 O________OO___ hurdat_epa EP131976 18.2000 -102.000 HU 75 1 18.2000 -102.000 TC 75 18.2000 -102.000 6 9 6
1976273N10270 1976 121 EP MM MADELINE 1976-10-08 15:00:00 TS 18.6075 -101.977 main 0 0 P________P____ EP131976 18.6075 -101.977 HU 75 1 18.6075 -101.977 TC 75 6 8 1
1976273N10270 1976 121 EP MM MADELINE 1976-10-08 18:00:00 TS 19.0000 -102.000 75 hurdat_epa main 0 O________O____ hurdat_epa EP131976 19.0000 -102.000 HU 75 1 19.0000 -102.000 TC 75 6 8 0

About IBTrACS Database

This database is a web-friendly format of International Best Track Archive for Climate Stewardship (IBTrACS), a global best track data archive curated by NOAA dating back to 1842.

Updated: 2021-12-01